Aérodrome :
LOGIN :

S'inscrire | Disclaimer

   EN    FR    IT 

 










Légende :    VFR   VFR Marginal   IFR   IFR Intensif   IFR Très Intensif
Visi : 
Plafond : 
>= 8 km
>= 3000ft
5 à 8 km
1000 à 3000 ft
1500m à 5 km
500 à 1000 ft
800 à 1500m
200 à 500 ft
< 800m
< 200 ft
Symboles :   Orages  Brouillard  Fortes neiges  Fortes précipitations  Vent > 20 kt
SIGMETs :   Divers  Orages  Givrage  Turbulence  Onde Orograph.  Cendres Volcan.







- Altitude de l'aérodrome : 388 ft
- Code IATA : QYR
- Voir les cartes d'approche


LFQB - Troyes Barberey

DERNIER METAR :
  • 181500Z AUTO 28009KT CAVOK 28/13 Q1016

METARs EXPIRÉS :
  • 181430Z AUTO VRB05KT CAVOK 29/14 Q1015
  • 181400Z AUTO 27007KT 220V320 CAVOK 29/13 Q1016
  • 181330Z AUTO 25008KT 200V280 CAVOK 30/13 Q1016
  • 181300Z AUTO 24011KT 210V270 CAVOK 29/13 Q1016
  • 181230Z AUTO 25008KT 220V280 CAVOK 28/12 Q1016

TAF N/A
Pas de NOTAMs connus pour ce terrain.
1 SIGMET publié pour la FIR Paris (LFFF) :
 
Orages noyés dans la masse
LFFF SIGMET 1 VALID 181330/181500 LFPW
LFFF PARIS FIR/UIR EMBD TS OBS WI N4800 E00145 - N4800 E00115 - N4915 E00300 - N4845 E00300 - N4800 E00145 TOP FL320 MOV NE 20KT NC=



MET'MAP, la Météo Aéronautique d'un coup d'oeil ! - Copyright ORBIFLY Décembre 2007 - Disclaimer

ORBIFLY MET'MAP TEAM :

Programmation & Développement : Alexandra Zaïnal
Conception & Développement : Baudouin d'Aumeries
Co-Programmation & Développement : Marc-Olivier Méhu
Soutien technique & logistique : Manuel Goepfert

Contact : metmap@orbifly.com




SOURCES & CREDITS :

   NOAA